sensor_id;sensor_type;location;lat;lon;timestamp;pressure;altitude;pressure_sealevel;temperature
76898;BMP180;65856;52.178;21.176;2022-12-29T00:01:09;100253.60;;;5.74
76898;BMP180;65856;52.178;21.176;2022-12-29T00:03:37;100245.00;;;5.80
76898;BMP180;65856;52.178;21.176;2022-12-29T00:06:05;100250.20;;;5.80
76898;BMP180;65856;52.178;21.176;2022-12-29T00:08:33;100247.40;;;5.80
76898;BMP180;65856;52.178;21.176;2022-12-29T00:11:08;100247.20;;;5.80
76898;BMP180;65856;52.178;21.176;2022-12-29T00:13:37;100246.60;;;5.80
76898;BMP180;65856;52.178;21.176;2022-12-29T00:16:23;100246.00;;;5.80
76898;BMP180;65856;52.178;21.176;2022-12-29T00:18:51;100245.00;;;5.80
76898;BMP180;65856;52.178;21.176;2022-12-29T00:21:23;100240.00;;;5.80
76898;BMP180;65856;52.178;21.176;2022-12-29T00:24:14;100232.60;;;5.72
76898;BMP180;65856;52.178;21.176;2022-12-29T00:27:12;100233.20;;;5.70
76898;BMP180;65856;52.178;21.176;2022-12-29T00:29:59;100237.60;;;5.70
76898;BMP180;65856;52.178;21.176;2022-12-29T00:32:59;100237.00;;;5.70
76898;BMP180;65856;52.178;21.176;2022-12-29T00:35:52;100228.80;;;5.74
76898;BMP180;65856;52.178;21.176;2022-12-29T00:38:22;100235.20;;;5.80
76898;BMP180;65856;52.178;21.176;2022-12-29T00:41:09;100237.40;;;5.82
76898;BMP180;65856;52.178;21.176;2022-12-29T00:43:55;100245.20;;;5.88
76898;BMP180;65856;52.178;21.176;2022-12-29T00:46:38;100242.20;;;5.82
76898;BMP180;65856;52.178;21.176;2022-12-29T00:49:09;100239.00;;;5.80
76898;BMP180;65856;52.178;21.176;2022-12-29T00:51:58;100240.60;;;5.80
76898;BMP180;65856;52.178;21.176;2022-12-29T00:54:27;100250.80;;;5.80
76898;BMP180;65856;52.178;21.176;2022-12-29T00:56:56;100248.20;;;5.78
76898;BMP180;65856;52.178;21.176;2022-12-29T00:59:24;100249.40;;;5.70
76898;BMP180;65856;52.178;21.176;2022-12-29T01:01:54;100250.60;;;5.70
76898;BMP180;65856;52.178;21.176;2022-12-29T01:04:25;100246.60;;;5.70
76898;BMP180;65856;52.178;21.176;2022-12-29T01:06:54;100238.40;;;5.70
76898;BMP180;65856;52.178;21.176;2022-12-29T01:09:22;100241.00;;;5.70
76898;BMP180;65856;52.178;21.176;2022-12-29T01:12:10;100234.60;;;5.70
76898;BMP180;65856;52.178;21.176;2022-12-29T01:14:39;100230.20;;;5.70
76898;BMP180;65856;52.178;21.176;2022-12-29T01:17:07;100233.00;;;5.70
76898;BMP180;65856;52.178;21.176;2022-12-29T01:19:35;100222.60;;;5.70
76898;BMP180;65856;52.178;21.176;2022-12-29T01:22:03;100213.80;;;5.78
76898;BMP180;65856;52.178;21.176;2022-12-29T01:24:31;100207.80;;;5.80
76898;BMP180;65856;52.178;21.176;2022-12-29T01:27:00;100207.20;;;5.80
76898;BMP180;65856;52.178;21.176;2022-12-29T01:29:28;100205.40;;;5.76
76898;BMP180;65856;52.178;21.176;2022-12-29T01:31:56;100209.60;;;5.70
76898;BMP180;65856;52.178;21.176;2022-12-29T01:34:24;100205.80;;;5.70
76898;BMP180;65856;52.178;21.176;2022-12-29T01:36:52;100201.60;;;5.70
76898;BMP180;65856;52.178;21.176;2022-12-29T01:39:21;100202.00;;;5.70
76898;BMP180;65856;52.178;21.176;2022-12-29T01:41:49;100197.80;;;5.64
76898;BMP180;65856;52.178;21.176;2022-12-29T01:44:50;100197.40;;;5.60
76898;BMP180;65856;52.178;21.176;2022-12-29T01:47:27;100190.60;;;5.60
76898;BMP180;65856;52.178;21.176;2022-12-29T01:50:08;100188.60;;;5.60
76898;BMP180;65856;52.178;21.176;2022-12-29T01:52:43;100185.20;;;5.50
76898;BMP180;65856;52.178;21.176;2022-12-29T01:55:13;100174.00;;;5.50
76898;BMP180;65856;52.178;21.176;2022-12-29T01:57:47;100175.00;;;5.58
76898;BMP180;65856;52.178;21.176;2022-12-29T02:00:18;100165.00;;;5.60
76898;BMP180;65856;52.178;21.176;2022-12-29T02:02:51;100166.20;;;5.60
76898;BMP180;65856;52.178;21.176;2022-12-29T02:05:27;100167.60;;;5.60
76898;BMP180;65856;52.178;21.176;2022-12-29T02:07:56;100169.00;;;5.60
76898;BMP180;65856;52.178;21.176;2022-12-29T02:10:28;100172.00;;;5.60
76898;BMP180;65856;52.178;21.176;2022-12-29T02:12:58;100169.20;;;5.60
76898;BMP180;65856;52.178;21.176;2022-12-29T02:15:38;100163.80;;;5.56
76898;BMP180;65856;52.178;21.176;2022-12-29T02:18:28;100171.00;;;5.50
76898;BMP180;65856;52.178;21.176;2022-12-29T02:27:40;100152.00;;;5.40
76898;BMP180;65856;52.178;21.176;2022-12-29T02:30:40;100143.60;;;5.40
76898;BMP180;65856;52.178;21.176;2022-12-29T02:33:23;100150.40;;;5.40
76898;BMP180;65856;52.178;21.176;2022-12-29T02:36:04;100157.80;;;5.40
76898;BMP180;65856;52.178;21.176;2022-12-29T02:38:51;100159.80;;;5.40
76898;BMP180;65856;52.178;21.176;2022-12-29T02:41:26;100162.60;;;5.40
76898;BMP180;65856;52.178;21.176;2022-12-29T02:44:06;100168.80;;;5.44
76898;BMP180;65856;52.178;21.176;2022-12-29T02:46:47;100170.60;;;5.50
76898;BMP180;65856;52.178;21.176;2022-12-29T02:49:22;100171.80;;;5.42
76898;BMP180;65856;52.178;21.176;2022-12-29T02:51:59;100169.80;;;5.40
76898;BMP180;65856;52.178;21.176;2022-12-29T02:54:29;100174.80;;;5.40
76898;BMP180;65856;52.178;21.176;2022-12-29T02:57:26;100168.80;;;5.38
76898;BMP180;65856;52.178;21.176;2022-12-29T03:00:02;100172.60;;;5.30
76898;BMP180;65856;52.178;21.176;2022-12-29T03:02:50;100180.80;;;5.30
76898;BMP180;65856;52.178;21.176;2022-12-29T03:05:43;100178.40;;;5.30
76898;BMP180;65856;52.178;21.176;2022-12-29T03:08:27;100179.80;;;5.30
76898;BMP180;65856;52.178;21.176;2022-12-29T03:11:02;100179.00;;;5.30
76898;BMP180;65856;52.178;21.176;2022-12-29T03:13:45;100178.40;;;5.30
76898;BMP180;65856;52.178;21.176;2022-12-29T03:16:44;100177.00;;;5.30
76898;BMP180;65856;52.178;21.176;2022-12-29T03:19:21;100180.40;;;5.22
76898;BMP180;65856;52.178;21.176;2022-12-29T03:21:56;100186.00;;;5.20
76898;BMP180;65856;52.178;21.176;2022-12-29T03:24:48;100188.40;;;5.20
76898;BMP180;65856;52.178;21.176;2022-12-29T03:27:23;100183.60;;;5.16
76898;BMP180;65856;52.178;21.176;2022-12-29T03:29:57;100178.40;;;5.10
76898;BMP180;65856;52.178;21.176;2022-12-29T03:32:31;100171.00;;;5.00
76898;BMP180;65856;52.178;21.176;2022-12-29T03:35:01;100169.20;;;5.00
76898;BMP180;65856;52.178;21.176;2022-12-29T03:37:35;100160.00;;;5.00
76898;BMP180;65856;52.178;21.176;2022-12-29T03:40:08;100162.40;;;5.00
76898;BMP180;65856;52.178;21.176;2022-12-29T03:42:37;100159.60;;;5.00
76898;BMP180;65856;52.178;21.176;2022-12-29T03:45:10;100149.00;;;4.90
76898;BMP180;65856;52.178;21.176;2022-12-29T03:47:38;100137.20;;;4.90
76898;BMP180;65856;52.178;21.176;2022-12-29T03:50:11;100138.40;;;4.80
76898;BMP180;65856;52.178;21.176;2022-12-29T03:52:39;100135.80;;;4.70
76898;BMP180;65856;52.178;21.176;2022-12-29T03:55:09;100115.80;;;4.60
76898;BMP180;65856;52.178;21.176;2022-12-29T03:57:37;100097.80;;;4.52
76898;BMP180;65856;52.178;21.176;2022-12-29T04:00:09;100092.00;;;4.50
76898;BMP180;65856;52.178;21.176;2022-12-29T04:02:37;100083.00;;;4.44
76898;BMP180;65856;52.178;21.176;2022-12-29T04:05:08;100081.80;;;4.40
76898;BMP180;65856;52.178;21.176;2022-12-29T04:07:36;100115.60;;;4.40
76898;BMP180;65856;52.178;21.176;2022-12-29T04:10:05;100105.80;;;4.50
76898;BMP180;65856;52.178;21.176;2022-12-29T04:12:33;100096.20;;;4.50
76898;BMP180;65856;52.178;21.176;2022-12-29T04:15:01;100103.20;;;4.40
76898;BMP180;65856;52.178;21.176;2022-12-29T04:17:30;100096.40;;;4.40
76898;BMP180;65856;52.178;21.176;2022-12-29T04:19:58;100096.00;;;4.30
76898;BMP180;65856;52.178;21.176;2022-12-29T04:22:40;100093.40;;;4.30
76898;BMP180;65856;52.178;21.176;2022-12-29T04:25:09;100091.00;;;4.20
76898;BMP180;65856;52.178;21.176;2022-12-29T04:27:38;100096.20;;;4.20
76898;BMP180;65856;52.178;21.176;2022-12-29T04:30:09;100086.20;;;4.22
76898;BMP180;65856;52.178;21.176;2022-12-29T04:32:37;100092.60;;;4.28
76898;BMP180;65856;52.178;21.176;2022-12-29T04:35:07;100081.80;;;4.20
76898;BMP180;65856;52.178;21.176;2022-12-29T04:37:36;100088.60;;;4.20
76898;BMP180;65856;52.178;21.176;2022-12-29T04:40:06;100099.40;;;4.20
76898;BMP180;65856;52.178;21.176;2022-12-29T04:42:34;100107.60;;;4.16
76898;BMP180;65856;52.178;21.176;2022-12-29T04:45:03;100106.00;;;4.14
76898;BMP180;65856;52.178;21.176;2022-12-29T04:47:31;100091.80;;;4.14
76898;BMP180;65856;52.178;21.176;2022-12-29T04:49:59;100076.80;;;4.10
76898;BMP180;65856;52.178;21.176;2022-12-29T04:52:27;100064.40;;;4.00
76898;BMP180;65856;52.178;21.176;2022-12-29T04:54:55;100063.20;;;4.30
76898;BMP180;65856;52.178;21.176;2022-12-29T04:57:24;100061.60;;;4.60
76898;BMP180;65856;52.178;21.176;2022-12-29T04:59:52;100065.60;;;4.90
76898;BMP180;65856;52.178;21.176;2022-12-29T05:02:20;100064.80;;;4.80
76898;BMP180;65856;52.178;21.176;2022-12-29T05:04:48;100073.80;;;4.74
76898;BMP180;65856;52.178;21.176;2022-12-29T05:07:16;100070.20;;;4.70
76898;BMP180;65856;52.178;21.176;2022-12-29T05:09:45;100064.80;;;4.60
76898;BMP180;65856;52.178;21.176;2022-12-29T05:12:13;100058.60;;;4.50
76898;BMP180;65856;52.178;21.176;2022-12-29T05:14:41;100051.20;;;4.40
76898;BMP180;65856;52.178;21.176;2022-12-29T05:17:10;100044.00;;;4.30
76898;BMP180;65856;52.178;21.176;2022-12-29T05:19:38;100053.00;;;4.24
76898;BMP180;65856;52.178;21.176;2022-12-29T05:22:07;100044.40;;;4.20
76898;BMP180;65856;52.178;21.176;2022-12-29T05:24:35;100040.40;;;4.20
76898;BMP180;65856;52.178;21.176;2022-12-29T05:27:03;100042.80;;;4.20
76898;BMP180;65856;52.178;21.176;2022-12-29T05:29:32;100045.80;;;4.20
76898;BMP180;65856;52.178;21.176;2022-12-29T05:32:00;100043.40;;;4.20
76898;BMP180;65856;52.178;21.176;2022-12-29T05:34:29;100037.40;;;4.14
76898;BMP180;65856;52.178;21.176;2022-12-29T05:36:57;100037.80;;;4.10
76898;BMP180;65856;52.178;21.176;2022-12-29T05:39:25;100043.80;;;4.10
76898;BMP180;65856;52.178;21.176;2022-12-29T05:41:53;100035.60;;;4.02
76898;BMP180;65856;52.178;21.176;2022-12-29T05:44:21;100039.40;;;4.00
76898;BMP180;65856;52.178;21.176;2022-12-29T05:46:50;100034.80;;;4.00
76898;BMP180;65856;52.178;21.176;2022-12-29T05:49:18;100020.80;;;4.00
76898;BMP180;65856;52.178;21.176;2022-12-29T05:51:47;100006.00;;;4.00
76898;BMP180;65856;52.178;21.176;2022-12-29T05:54:15;100007.00;;;4.00
76898;BMP180;65856;52.178;21.176;2022-12-29T05:56:44;100006.80;;;4.00
76898;BMP180;65856;52.178;21.176;2022-12-29T05:59:12;100008.60;;;4.00
76898;BMP180;65856;52.178;21.176;2022-12-29T06:01:41;100008.00;;;4.00
76898;BMP180;65856;52.178;21.176;2022-12-29T06:04:09;100014.40;;;3.90
76898;BMP180;65856;52.178;21.176;2022-12-29T06:06:38;100021.40;;;3.90
76898;BMP180;65856;52.178;21.176;2022-12-29T06:09:09;100022.20;;;3.90
76898;BMP180;65856;52.178;21.176;2022-12-29T06:11:38;100021.60;;;3.90
76898;BMP180;65856;52.178;21.176;2022-12-29T06:14:06;100026.20;;;3.90
76898;BMP180;65856;52.178;21.176;2022-12-29T06:16:35;100022.80;;;3.92
76898;BMP180;65856;52.178;21.176;2022-12-29T06:19:04;100021.40;;;4.00
76898;BMP180;65856;52.178;21.176;2022-12-29T06:21:32;100019.60;;;4.00
76898;BMP180;65856;52.178;21.176;2022-12-29T06:24:00;100016.60;;;4.00
76898;BMP180;65856;52.178;21.176;2022-12-29T06:26:29;100012.60;;;3.90
76898;BMP180;65856;52.178;21.176;2022-12-29T06:28:57;100018.20;;;3.90
76898;BMP180;65856;52.178;21.176;2022-12-29T06:31:26;100024.00;;;3.90
76898;BMP180;65856;52.178;21.176;2022-12-29T06:33:54;100031.00;;;3.90
76898;BMP180;65856;52.178;21.176;2022-12-29T06:36:23;100019.40;;;3.90
76898;BMP180;65856;52.178;21.176;2022-12-29T06:38:51;100021.40;;;3.94
76898;BMP180;65856;52.178;21.176;2022-12-29T06:41:20;100031.40;;;4.00
76898;BMP180;65856;52.178;21.176;2022-12-29T06:43:49;100028.60;;;4.00
76898;BMP180;65856;52.178;21.176;2022-12-29T06:46:18;100029.60;;;4.08
76898;BMP180;65856;52.178;21.176;2022-12-29T06:48:46;100039.00;;;4.00
76898;BMP180;65856;52.178;21.176;2022-12-29T06:51:15;100044.40;;;4.00
76898;BMP180;65856;52.178;21.176;2022-12-29T06:53:43;100045.80;;;4.00
76898;BMP180;65856;52.178;21.176;2022-12-29T06:56:12;100054.60;;;4.00
76898;BMP180;65856;52.178;21.176;2022-12-29T06:58:40;100053.40;;;4.00
76898;BMP180;65856;52.178;21.176;2022-12-29T07:01:09;100046.80;;;4.00
76898;BMP180;65856;52.178;21.176;2022-12-29T07:03:37;100051.80;;;4.00
76898;BMP180;65856;52.178;21.176;2022-12-29T07:06:07;100046.20;;;4.08
76898;BMP180;65856;52.178;21.176;2022-12-29T07:08:35;100040.80;;;4.10
76898;BMP180;65856;52.178;21.176;2022-12-29T07:11:04;100032.40;;;4.10
76898;BMP180;65856;52.178;21.176;2022-12-29T07:13:32;100031.80;;;4.10
76898;BMP180;65856;52.178;21.176;2022-12-29T07:16:05;100021.60;;;4.10
76898;BMP180;65856;52.178;21.176;2022-12-29T07:18:34;100018.60;;;4.10
76898;BMP180;65856;52.178;21.176;2022-12-29T07:21:03;100018.80;;;4.10
76898;BMP180;65856;52.178;21.176;2022-12-29T07:23:32;100021.00;;;4.10
76898;BMP180;65856;52.178;21.176;2022-12-29T07:26:06;100020.80;;;4.06
76898;BMP180;65856;52.178;21.176;2022-12-29T07:28:37;100018.40;;;4.08
76898;BMP180;65856;52.178;21.176;2022-12-29T07:31:14;100022.40;;;4.10
76898;BMP180;65856;52.178;21.176;2022-12-29T07:33:43;100020.60;;;4.10
76898;BMP180;65856;52.178;21.176;2022-12-29T07:36:12;100009.20;;;4.10
76898;BMP180;65856;52.178;21.176;2022-12-29T07:38:42;100006.60;;;4.20
76898;BMP180;65856;52.178;21.176;2022-12-29T07:41:10;100003.60;;;4.20
76898;BMP180;65856;52.178;21.176;2022-12-29T07:43:39;100005.40;;;4.20
76898;BMP180;65856;52.178;21.176;2022-12-29T07:46:07;100002.20;;;4.20
76898;BMP180;65856;52.178;21.176;2022-12-29T07:48:37;100002.00;;;4.24
76898;BMP180;65856;52.178;21.176;2022-12-29T07:51:06;100007.20;;;4.22
76898;BMP180;65856;52.178;21.176;2022-12-29T07:53:34;100004.00;;;4.20
76898;BMP180;65856;52.178;21.176;2022-12-29T07:56:04;100004.40;;;4.22
76898;BMP180;65856;52.178;21.176;2022-12-29T07:58:32;100014.20;;;4.30
76898;BMP180;65856;52.178;21.176;2022-12-29T08:01:00;100009.40;;;4.30
76898;BMP180;65856;52.178;21.176;2022-12-29T08:03:28;100004.40;;;4.40
76898;BMP180;65856;52.178;21.176;2022-12-29T08:05:57;99997.20;;;4.40
76898;BMP180;65856;52.178;21.176;2022-12-29T08:08:26;99996.00;;;4.50
76898;BMP180;65856;52.178;21.176;2022-12-29T08:10:54;99994.60;;;4.50
76898;BMP180;65856;52.178;21.176;2022-12-29T08:13:22;99996.00;;;4.50
76898;BMP180;65856;52.178;21.176;2022-12-29T08:15:50;99997.40;;;4.50
76898;BMP180;65856;52.178;21.176;2022-12-29T08:18:18;99989.80;;;4.50
76898;BMP180;65856;52.178;21.176;2022-12-29T08:20:47;99993.20;;;4.50
76898;BMP180;65856;52.178;21.176;2022-12-29T08:23:15;99981.00;;;4.50
76898;BMP180;65856;52.178;21.176;2022-12-29T08:25:43;99984.80;;;4.60
76898;BMP180;65856;52.178;21.176;2022-12-29T08:28:11;99981.00;;;4.70
76898;BMP180;65856;52.178;21.176;2022-12-29T08:30:39;99983.40;;;4.80
76898;BMP180;65856;52.178;21.176;2022-12-29T08:33:08;99988.40;;;4.90
76898;BMP180;65856;52.178;21.176;2022-12-29T08:35:36;99979.40;;;4.90
76898;BMP180;65856;52.178;21.176;2022-12-29T08:38:04;99985.40;;;5.00
76898;BMP180;65856;52.178;21.176;2022-12-29T08:40:32;99987.80;;;5.00
76898;BMP180;65856;52.178;21.176;2022-12-29T08:43:00;99986.20;;;5.10
76898;BMP180;65856;52.178;21.176;2022-12-29T08:45:28;99985.80;;;5.14
76898;BMP180;65856;52.178;21.176;2022-12-29T08:47:56;99985.00;;;5.30
76898;BMP180;65856;52.178;21.176;2022-12-29T08:50:24;99992.40;;;5.50
76898;BMP180;65856;52.178;21.176;2022-12-29T08:52:53;99998.00;;;5.60
76898;BMP180;65856;52.178;21.176;2022-12-29T08:55:21;100007.60;;;5.70
76898;BMP180;65856;52.178;21.176;2022-12-29T08:57:49;100014.00;;;5.80
76898;BMP180;65856;52.178;21.176;2022-12-29T09:00:18;100015.00;;;5.90
76898;BMP180;65856;52.178;21.176;2022-12-29T09:02:48;100006.40;;;6.00
76898;BMP180;65856;52.178;21.176;2022-12-29T09:05:16;100005.40;;;6.00
76898;BMP180;65856;52.178;21.176;2022-12-29T09:07:44;100003.40;;;6.00
76898;BMP180;65856;52.178;21.176;2022-12-29T09:10:12;100005.40;;;6.10
76898;BMP180;65856;52.178;21.176;2022-12-29T09:12:41;100012.60;;;6.10
76898;BMP180;65856;52.178;21.176;2022-12-29T09:15:10;100007.40;;;6.12
76898;BMP180;65856;52.178;21.176;2022-12-29T09:17:39;99995.40;;;6.18
76898;BMP180;65856;52.178;21.176;2022-12-29T09:20:12;99998.20;;;6.20
76898;BMP180;65856;52.178;21.176;2022-12-29T09:22:40;99990.60;;;6.20
76898;BMP180;65856;52.178;21.176;2022-12-29T09:25:10;99992.60;;;6.20
76898;BMP180;65856;52.178;21.176;2022-12-29T09:27:39;99989.40;;;6.20
76898;BMP180;65856;52.178;21.176;2022-12-29T09:30:12;99991.40;;;6.28
76898;BMP180;65856;52.178;21.176;2022-12-29T09:32:42;99990.40;;;6.30
76898;BMP180;65856;52.178;21.176;2022-12-29T09:35:10;99980.40;;;6.40
76898;BMP180;65856;52.178;21.176;2022-12-29T09:37:38;99981.00;;;6.40
76898;BMP180;65856;52.178;21.176;2022-12-29T09:40:23;99978.60;;;6.48
76898;BMP180;65856;52.178;21.176;2022-12-29T09:43:08;99979.60;;;6.50
76898;BMP180;65856;52.178;21.176;2022-12-29T09:45:45;99980.20;;;6.60
76898;BMP180;65856;52.178;21.176;2022-12-29T09:48:20;99983.40;;;6.60
76898;BMP180;65856;52.178;21.176;2022-12-29T09:50:56;99973.40;;;6.60
76898;BMP180;65856;52.178;21.176;2022-12-29T09:53:31;99974.20;;;6.60
76898;BMP180;65856;52.178;21.176;2022-12-29T09:56:05;99971.20;;;6.60
76898;BMP180;65856;52.178;21.176;2022-12-29T09:58:44;99968.40;;;6.60
76898;BMP180;65856;52.178;21.176;2022-12-29T10:01:26;99971.20;;;6.60
76898;BMP180;65856;52.178;21.176;2022-12-29T10:03:58;99965.00;;;6.60
76898;BMP180;65856;52.178;21.176;2022-12-29T10:06:37;99961.20;;;6.60
76898;BMP180;65856;52.178;21.176;2022-12-29T10:09:17;99958.60;;;6.62
76898;BMP180;65856;52.178;21.176;2022-12-29T10:12:11;99959.00;;;6.70
76898;BMP180;65856;52.178;21.176;2022-12-29T10:15:01;99955.20;;;6.76
76898;BMP180;65856;52.178;21.176;2022-12-29T10:17:41;99959.40;;;6.80
76898;BMP180;65856;52.178;21.176;2022-12-29T10:20:23;99946.00;;;6.80
76898;BMP180;65856;52.178;21.176;2022-12-29T10:23:22;99943.00;;;6.80
76898;BMP180;65856;52.178;21.176;2022-12-29T10:25:56;99944.80;;;6.80
76898;BMP180;65856;52.178;21.176;2022-12-29T10:28:34;99945.40;;;6.80
76898;BMP180;65856;52.178;21.176;2022-12-29T10:31:12;99939.80;;;6.80
76898;BMP180;65856;52.178;21.176;2022-12-29T10:33:43;99936.60;;;6.90
76898;BMP180;65856;52.178;21.176;2022-12-29T10:36:19;99936.80;;;7.18
76898;BMP180;65856;52.178;21.176;2022-12-29T10:39:03;99939.20;;;7.50
76898;BMP180;65856;52.178;21.176;2022-12-29T10:41:40;99935.60;;;7.70
76898;BMP180;65856;52.178;21.176;2022-12-29T10:44:14;99940.60;;;7.86
76898;BMP180;65856;52.178;21.176;2022-12-29T10:46:45;99942.00;;;7.82
76898;BMP180;65856;52.178;21.176;2022-12-29T10:49:19;99941.40;;;7.80
76898;BMP180;65856;52.178;21.176;2022-12-29T10:51:51;99930.80;;;7.70
76898;BMP180;65856;52.178;21.176;2022-12-29T10:54:29;99924.00;;;7.60
76898;BMP180;65856;52.178;21.176;2022-12-29T10:57:05;99922.40;;;7.60
76898;BMP180;65856;52.178;21.176;2022-12-29T10:59:38;99920.20;;;7.50
76898;BMP180;65856;52.178;21.176;2022-12-29T11:05:17;99903.60;;;7.50
76898;BMP180;65856;52.178;21.176;2022-12-29T11:07:51;99910.20;;;7.50
76898;BMP180;65856;52.178;21.176;2022-12-29T11:10:36;99900.20;;;7.52
76898;BMP180;65856;52.178;21.176;2022-12-29T11:13:13;99905.00;;;7.60
76898;BMP180;65856;52.178;21.176;2022-12-29T11:15:44;99908.40;;;7.60
76898;BMP180;65856;52.178;21.176;2022-12-29T11:18:25;99907.00;;;7.60
76898;BMP180;65856;52.178;21.176;2022-12-29T11:20:56;99912.00;;;7.60
76898;BMP180;65856;52.178;21.176;2022-12-29T11:23:32;99913.60;;;7.62
76898;BMP180;65856;52.178;21.176;2022-12-29T11:26:17;99921.80;;;7.60
76898;BMP180;65856;52.178;21.176;2022-12-29T11:29:05;99918.60;;;7.60
76898;BMP180;65856;52.178;21.176;2022-12-29T11:31:41;99911.00;;;7.60
76898;BMP180;65856;52.178;21.176;2022-12-29T11:34:17;99913.40;;;7.60
76898;BMP180;65856;52.178;21.176;2022-12-29T11:36:47;99904.00;;;7.58
76898;BMP180;65856;52.178;21.176;2022-12-29T11:39:40;99905.00;;;7.56
76898;BMP180;65856;52.178;21.176;2022-12-29T11:42:16;99906.60;;;7.50
76898;BMP180;65856;52.178;21.176;2022-12-29T11:44:47;99911.80;;;7.50
76898;BMP180;65856;52.178;21.176;2022-12-29T11:47:27;99917.40;;;7.50
76898;BMP180;65856;52.178;21.176;2022-12-29T11:50:00;99913.80;;;7.50
76898;BMP180;65856;52.178;21.176;2022-12-29T11:52:33;99915.80;;;7.50
76898;BMP180;65856;52.178;21.176;2022-12-29T11:55:07;99907.40;;;7.50
76898;BMP180;65856;52.178;21.176;2022-12-29T11:57:45;99908.40;;;7.50
76898;BMP180;65856;52.178;21.176;2022-12-29T12:00:20;99908.20;;;7.50
76898;BMP180;65856;52.178;21.176;2022-12-29T12:02:54;99908.40;;;7.50
76898;BMP180;65856;52.178;21.176;2022-12-29T12:05:33;99913.40;;;7.54
76898;BMP180;65856;52.178;21.176;2022-12-29T12:08:14;99910.00;;;7.60
76898;BMP180;65856;52.178;21.176;2022-12-29T12:10:52;99910.60;;;7.50
76898;BMP180;65856;52.178;21.176;2022-12-29T12:13:30;99905.00;;;7.58
76898;BMP180;65856;52.178;21.176;2022-12-29T12:16:09;99909.00;;;7.60
76898;BMP180;65856;52.178;21.176;2022-12-29T12:18:47;99908.80;;;7.68
76898;BMP180;65856;52.178;21.176;2022-12-29T12:21:24;99908.40;;;7.70
76898;BMP180;65856;52.178;21.176;2022-12-29T12:24:07;99904.60;;;7.74
76898;BMP180;65856;52.178;21.176;2022-12-29T12:26:43;99906.60;;;7.80
76898;BMP180;65856;52.178;21.176;2022-12-29T12:29:22;99905.20;;;7.80
76898;BMP180;65856;52.178;21.176;2022-12-29T12:31:59;99897.80;;;7.80
76898;BMP180;65856;52.178;21.176;2022-12-29T12:34:33;99895.60;;;7.82
76898;BMP180;65856;52.178;21.176;2022-12-29T12:37:42;99890.80;;;7.88
76898;BMP180;65856;52.178;21.176;2022-12-29T12:40:44;99885.40;;;7.90
76898;BMP180;65856;52.178;21.176;2022-12-29T12:43:35;99884.60;;;7.90
76898;BMP180;65856;52.178;21.176;2022-12-29T12:46:23;99890.40;;;7.90
76898;BMP180;65856;52.178;21.176;2022-12-29T12:49:16;99887.60;;;7.86
76898;BMP180;65856;52.178;21.176;2022-12-29T12:51:58;99879.20;;;7.86
76898;BMP180;65856;52.178;21.176;2022-12-29T12:54:49;99874.20;;;7.80
76898;BMP180;65856;52.178;21.176;2022-12-29T12:57:40;99866.00;;;7.82
76898;BMP180;65856;52.178;21.176;2022-12-29T13:00:16;99864.40;;;7.80
76898;BMP180;65856;52.178;21.176;2022-12-29T13:02:59;99868.80;;;7.80
76898;BMP180;65856;52.178;21.176;2022-12-29T13:06:05;99872.20;;;7.80
76898;BMP180;65856;52.178;21.176;2022-12-29T13:09:21;99866.00;;;7.80
76898;BMP180;65856;52.178;21.176;2022-12-29T13:12:06;99875.20;;;7.80
76898;BMP180;65856;52.178;21.176;2022-12-29T13:14:53;99869.60;;;7.82
76898;BMP180;65856;52.178;21.176;2022-12-29T13:17:32;99871.40;;;7.90
76898;BMP180;65856;52.178;21.176;2022-12-29T13:20:19;99871.80;;;7.90
76898;BMP180;65856;52.178;21.176;2022-12-29T13:22:57;99876.40;;;8.00
76898;BMP180;65856;52.178;21.176;2022-12-29T13:25:37;99878.60;;;8.00
76898;BMP180;65856;52.178;21.176;2022-12-29T13:28:18;99875.80;;;8.00
76898;BMP180;65856;52.178;21.176;2022-12-29T13:30:56;99885.80;;;8.00
76898;BMP180;65856;52.178;21.176;2022-12-29T13:33:36;99887.80;;;8.00
76898;BMP180;65856;52.178;21.176;2022-12-29T13:36:19;99893.80;;;8.00
76898;BMP180;65856;52.178;21.176;2022-12-29T13:38:53;99894.80;;;8.00
76898;BMP180;65856;52.178;21.176;2022-12-29T13:41:35;99891.60;;;8.00
76898;BMP180;65856;52.178;21.176;2022-12-29T13:44:10;99886.40;;;8.00
76898;BMP180;65856;52.178;21.176;2022-12-29T13:46:45;99886.20;;;8.00
76898;BMP180;65856;52.178;21.176;2022-12-29T13:49:18;99890.60;;;7.96
76898;BMP180;65856;52.178;21.176;2022-12-29T13:51:50;99889.00;;;7.90
76898;BMP180;65856;52.178;21.176;2022-12-29T13:54:34;99894.00;;;7.92
76898;BMP180;65856;52.178;21.176;2022-12-29T13:57:12;99889.60;;;7.90
76898;BMP180;65856;52.178;21.176;2022-12-29T13:59:52;99898.20;;;7.90
76898;BMP180;65856;52.178;21.176;2022-12-29T14:02:36;99898.00;;;7.90
76898;BMP180;65856;52.178;21.176;2022-12-29T14:05:31;99902.20;;;7.90
76898;BMP180;65856;52.178;21.176;2022-12-29T14:08:02;99898.40;;;7.90
76898;BMP180;65856;52.178;21.176;2022-12-29T14:10:35;99906.00;;;8.00
76898;BMP180;65856;52.178;21.176;2022-12-29T14:13:12;99907.00;;;8.00
76898;BMP180;65856;52.178;21.176;2022-12-29T14:15:43;99908.20;;;8.10
76898;BMP180;65856;52.178;21.176;2022-12-29T14:18:18;99898.80;;;8.10
76898;BMP180;65856;52.178;21.176;2022-12-29T14:20:59;99906.40;;;8.14
76898;BMP180;65856;52.178;21.176;2022-12-29T14:23:40;99900.00;;;8.20
76898;BMP180;65856;52.178;21.176;2022-12-29T14:26:16;99907.80;;;8.20
76898;BMP180;65856;52.178;21.176;2022-12-29T14:28:47;99905.00;;;8.20
76898;BMP180;65856;52.178;21.176;2022-12-29T14:31:36;99900.20;;;8.20
76898;BMP180;65856;52.178;21.176;2022-12-29T14:34:28;99899.20;;;8.20
76898;BMP180;65856;52.178;21.176;2022-12-29T14:36:59;99905.20;;;8.20
76898;BMP180;65856;52.178;21.176;2022-12-29T14:39:35;99899.80;;;8.20
76898;BMP180;65856;52.178;21.176;2022-12-29T14:42:10;99887.60;;;8.20
76898;BMP180;65856;52.178;21.176;2022-12-29T14:44:50;99894.40;;;8.20
76898;BMP180;65856;52.178;21.176;2022-12-29T14:47:25;99885.60;;;8.20
76898;BMP180;65856;52.178;21.176;2022-12-29T14:49:55;99888.60;;;8.20
76898;BMP180;65856;52.178;21.176;2022-12-29T14:52:25;99884.40;;;8.20